sensor_id;sensor_type;location;lat;lon;timestamp;pressure;altitude;pressure_sealevel;temperature;humidity
41632;BME280;37452;51.938;4.624;2023-08-08T00:00:35;76210.06;;;-142.75;100.00
41632;BME280;37452;51.938;4.624;2023-08-08T00:03:01;76188.44;;;-142.75;100.00
41632;BME280;37452;51.938;4.624;2023-08-08T00:05:26;76190.41;;;-142.75;100.00
41632;BME280;37452;51.938;4.624;2023-08-08T00:07:51;76186.47;;;-142.75;100.00
41632;BME280;37452;51.938;4.624;2023-08-08T00:10:17;76184.50;;;-142.75;100.00
41632;BME280;37452;51.938;4.624;2023-08-08T00:12:42;76174.66;;;-142.75;100.00
41632;BME280;37452;51.938;4.624;2023-08-08T00:15:08;76188.44;;;-142.75;100.00
41632;BME280;37452;51.938;4.624;2023-08-08T00:17:33;76170.72;;;-142.75;100.00
41632;BME280;37452;51.938;4.624;2023-08-08T00:19:59;76184.50;;;-142.75;100.00
41632;BME280;37452;51.938;4.624;2023-08-08T00:22:24;76166.78;;;-142.75;100.00
41632;BME280;37452;51.938;4.624;2023-08-08T00:24:50;76168.75;;;-142.75;100.00
41632;BME280;37452;51.938;4.624;2023-08-08T00:27:15;76160.88;;;-142.75;100.00
41632;BME280;37452;51.938;4.624;2023-08-08T00:29:40;76139.22;;;-142.75;100.00
41632;BME280;37452;51.938;4.624;2023-08-08T00:32:06;76141.19;;;-142.75;100.00
41632;BME280;37452;51.938;4.624;2023-08-08T00:34:31;76141.19;;;-142.75;100.00
41632;BME280;37452;51.938;4.624;2023-08-08T00:36:56;76141.19;;;-142.75;100.00
41632;BME280;37452;51.938;4.624;2023-08-08T00:39:22;76129.38;;;-142.75;100.00
41632;BME280;37452;51.938;4.624;2023-08-08T00:41:47;76129.38;;;-142.75;100.00
41632;BME280;37452;51.938;4.624;2023-08-08T00:44:12;76135.28;;;-142.75;100.00
41632;BME280;37452;51.938;4.624;2023-08-08T00:46:38;76127.41;;;-142.75;100.00
41632;BME280;37452;51.938;4.624;2023-08-08T00:49:04;76125.44;;;-142.75;100.00
41632;BME280;37452;51.938;4.624;2023-08-08T00:51:29;76121.50;;;-142.75;100.00
41632;BME280;37452;51.938;4.624;2023-08-08T00:53:56;76121.50;;;-142.75;100.00
41632;BME280;37452;51.938;4.624;2023-08-08T00:56:21;76117.56;;;-142.75;100.00
41632;BME280;37452;51.938;4.624;2023-08-08T00:58:47;76129.38;;;-142.75;100.00
41632;BME280;37452;51.938;4.624;2023-08-08T01:01:15;76125.44;;;-142.75;100.00
41632;BME280;37452;51.938;4.624;2023-08-08T01:03:42;76129.38;;;-142.75;100.00
41632;BME280;37452;51.938;4.624;2023-08-08T01:06:13;76129.38;;;-142.75;100.00
41632;BME280;37452;51.938;4.624;2023-08-08T01:11:45;76151.03;;;-142.75;100.00
41632;BME280;37452;51.938;4.624;2023-08-08T01:14:14;76168.75;;;-142.75;100.00
41632;BME280;37452;51.938;4.624;2023-08-08T01:16:40;76172.69;;;-142.75;100.00
41632;BME280;37452;51.938;4.624;2023-08-08T01:19:07;76188.44;;;-142.75;100.00
41632;BME280;37452;51.938;4.624;2023-08-08T01:21:37;76196.31;;;-142.75;100.00
41632;BME280;37452;51.938;4.624;2023-08-08T01:24:14;76188.44;;;-142.75;100.00
41632;BME280;37452;51.938;4.624;2023-08-08T01:26:40;76192.38;;;-142.75;100.00
41632;BME280;37452;51.938;4.624;2023-08-08T01:29:06;76202.19;;;-142.75;100.00
41632;BME280;37452;51.938;4.624;2023-08-08T01:31:31;76192.38;;;-142.75;100.00
41632;BME280;37452;51.938;4.624;2023-08-08T01:33:57;76204.16;;;-142.75;100.00
41632;BME280;37452;51.938;4.624;2023-08-08T01:36:28;76200.25;;;-142.75;100.00
41632;BME280;37452;51.938;4.624;2023-08-08T01:38:59;76215.97;;;-142.75;100.00
41632;BME280;37452;51.938;4.624;2023-08-08T01:41:32;76202.19;;;-142.75;100.00
41632;BME280;37452;51.938;4.624;2023-08-08T01:43:59;76208.09;;;-142.75;100.00
41632;BME280;37452;51.938;4.624;2023-08-08T01:46:25;76204.16;;;-142.75;100.00
41632;BME280;37452;51.938;4.624;2023-08-08T01:48:51;76212.03;;;-142.75;100.00
41632;BME280;37452;51.938;4.624;2023-08-08T01:51:17;76225.81;;;-142.75;100.00
41632;BME280;37452;51.938;4.624;2023-08-08T01:53:42;76223.84;;;-142.75;100.00
41632;BME280;37452;51.938;4.624;2023-08-08T01:56:08;76231.72;;;-142.75;100.00
41632;BME280;37452;51.938;4.624;2023-08-08T01:58:33;76233.69;;;-142.75;100.00
41632;BME280;37452;51.938;4.624;2023-08-08T02:00:58;76241.56;;;-142.75;100.00
41632;BME280;37452;51.938;4.624;2023-08-08T02:03:24;76245.50;;;-142.75;100.00
41632;BME280;37452;51.938;4.624;2023-08-08T02:05:49;76282.91;;;-142.75;100.00
41632;BME280;37452;51.938;4.624;2023-08-08T02:08:14;76277.00;;;-142.75;100.00
41632;BME280;37452;51.938;4.624;2023-08-08T02:10:40;76275.03;;;-142.75;100.00
41632;BME280;37452;51.938;4.624;2023-08-08T02:13:05;76277.00;;;-142.75;100.00
41632;BME280;37452;51.938;4.624;2023-08-08T02:15:31;76269.13;;;-142.75;100.00
41632;BME280;37452;51.938;4.624;2023-08-08T02:17:56;76278.97;;;-142.75;100.00
41632;BME280;37452;51.938;4.624;2023-08-08T02:20:21;76278.97;;;-142.75;100.00
41632;BME280;37452;51.938;4.624;2023-08-08T02:22:47;76316.38;;;-142.75;100.00
41632;BME280;37452;51.938;4.624;2023-08-08T02:25:12;76312.44;;;-142.75;100.00
41632;BME280;37452;51.938;4.624;2023-08-08T02:27:37;76310.47;;;-142.75;100.00
41632;BME280;37452;51.938;4.624;2023-08-08T02:30:03;76314.41;;;-142.75;100.00
41632;BME280;37452;51.938;4.624;2023-08-08T02:32:29;76320.31;;;-142.75;100.00
41632;BME280;37452;51.938;4.624;2023-08-08T02:34:54;76330.16;;;-142.75;100.00
41632;BME280;37452;51.938;4.624;2023-08-08T02:37:19;76338.03;;;-142.75;100.00
41632;BME280;37452;51.938;4.624;2023-08-08T02:39:45;76341.97;;;-142.75;100.00
41632;BME280;37452;51.938;4.624;2023-08-08T02:42:10;76365.56;;;-142.75;100.00
41632;BME280;37452;51.938;4.624;2023-08-08T02:44:36;76389.19;;;-142.75;100.00
41632;BME280;37452;51.938;4.624;2023-08-08T02:47:01;76395.09;;;-142.75;100.00
41632;BME280;37452;51.938;4.624;2023-08-08T02:49:26;76383.28;;;-142.75;100.00
41632;BME280;37452;51.938;4.624;2023-08-08T02:51:52;76381.31;;;-142.75;100.00
41632;BME280;37452;51.938;4.624;2023-08-08T02:54:17;76381.31;;;-142.75;100.00
41632;BME280;37452;51.938;4.624;2023-08-08T02:56:42;76381.31;;;-142.75;100.00
41632;BME280;37452;51.938;4.624;2023-08-08T02:59:08;76373.44;;;-142.75;100.00
41632;BME280;37452;51.938;4.624;2023-08-08T03:01:33;76393.13;;;-142.75;100.00
41632;BME280;37452;51.938;4.624;2023-08-08T03:04:03;76402.97;;;-142.75;100.00
41632;BME280;37452;51.938;4.624;2023-08-08T03:06:28;76393.13;;;-142.75;100.00
41632;BME280;37452;51.938;4.624;2023-08-08T03:08:53;76401.00;;;-142.75;100.00
41632;BME280;37452;51.938;4.624;2023-08-08T03:11:19;76424.63;;;-142.75;100.00
41632;BME280;37452;51.938;4.624;2023-08-08T03:13:44;76446.28;;;-142.75;100.00
41632;BME280;37452;51.938;4.624;2023-08-08T03:16:09;76448.25;;;-142.75;100.00
41632;BME280;37452;51.938;4.624;2023-08-08T03:18:35;76460.06;;;-142.75;100.00
41632;BME280;37452;51.938;4.624;2023-08-08T03:21:00;76458.09;;;-142.75;100.00
41632;BME280;37452;51.938;4.624;2023-08-08T03:23:25;76454.16;;;-142.75;100.00
41632;BME280;37452;51.938;4.624;2023-08-08T03:25:50;76456.13;;;-142.75;100.00
41632;BME280;37452;51.938;4.624;2023-08-08T03:28:16;76458.09;;;-142.75;100.00
41632;BME280;37452;51.938;4.624;2023-08-08T03:30:41;76460.06;;;-142.75;100.00
41632;BME280;37452;51.938;4.624;2023-08-08T03:33:07;76456.13;;;-142.75;100.00
41632;BME280;37452;51.938;4.624;2023-08-08T03:35:32;76456.13;;;-142.75;100.00
41632;BME280;37452;51.938;4.624;2023-08-08T03:37:58;76450.22;;;-142.75;100.00
41632;BME280;37452;51.938;4.624;2023-08-08T03:40:23;76446.28;;;-142.75;100.00
41632;BME280;37452;51.938;4.624;2023-08-08T03:42:48;76444.31;;;-142.75;100.00
41632;BME280;37452;51.938;4.624;2023-08-08T03:45:14;76438.41;;;-142.75;100.00
41632;BME280;37452;51.938;4.624;2023-08-08T03:47:39;76467.94;;;-142.75;100.00
41632;BME280;37452;51.938;4.624;2023-08-08T03:50:06;76456.13;;;-142.75;100.00
41632;BME280;37452;51.938;4.624;2023-08-08T03:52:32;76454.16;;;-142.75;100.00
41632;BME280;37452;51.938;4.624;2023-08-08T03:54:59;76452.19;;;-142.75;100.00
41632;BME280;37452;51.938;4.624;2023-08-08T03:57:24;76452.19;;;-142.75;100.00
41632;BME280;37452;51.938;4.624;2023-08-08T03:59:50;76464.00;;;-142.75;100.00
41632;BME280;37452;51.938;4.624;2023-08-08T04:02:15;76450.22;;;-142.75;100.00
41632;BME280;37452;51.938;4.624;2023-08-08T04:04:40;76444.31;;;-142.75;100.00
41632;BME280;37452;51.938;4.624;2023-08-08T04:07:06;76436.44;;;-142.75;100.00
41632;BME280;37452;51.938;4.624;2023-08-08T04:09:31;76432.50;;;-142.75;100.00
41632;BME280;37452;51.938;4.624;2023-08-08T04:11:57;76426.59;;;-142.75;100.00
41632;BME280;37452;51.938;4.624;2023-08-08T04:14:22;76434.47;;;-142.75;100.00
41632;BME280;37452;51.938;4.624;2023-08-08T04:16:47;76406.91;;;-142.75;100.00
41632;BME280;37452;51.938;4.624;2023-08-08T04:19:12;76416.75;;;-142.75;100.00
41632;BME280;37452;51.938;4.624;2023-08-08T04:21:38;76424.63;;;-142.75;100.00
41632;BME280;37452;51.938;4.624;2023-08-08T04:24:03;76428.56;;;-142.75;100.00
41632;BME280;37452;51.938;4.624;2023-08-08T04:26:29;76440.38;;;-142.75;100.00
41632;BME280;37452;51.938;4.624;2023-08-08T04:28:54;76436.44;;;-142.75;100.00
41632;BME280;37452;51.938;4.624;2023-08-08T04:31:20;76428.56;;;-142.75;100.00
41632;BME280;37452;51.938;4.624;2023-08-08T04:33:48;76432.50;;;-142.75;100.00
41632;BME280;37452;51.938;4.624;2023-08-08T04:36:14;76450.22;;;-142.75;100.00
41632;BME280;37452;51.938;4.624;2023-08-08T04:38:39;76450.22;;;-142.75;100.00
41632;BME280;37452;51.938;4.624;2023-08-08T04:41:04;76456.13;;;-142.75;100.00
41632;BME280;37452;51.938;4.624;2023-08-08T04:43:29;76452.19;;;-142.75;100.00
41632;BME280;37452;51.938;4.624;2023-08-08T04:45:55;76460.06;;;-142.75;100.00
41632;BME280;37452;51.938;4.624;2023-08-08T04:48:21;76460.06;;;-142.75;100.00
41632;BME280;37452;51.938;4.624;2023-08-08T04:50:46;76458.09;;;-142.75;100.00
41632;BME280;37452;51.938;4.624;2023-08-08T04:53:12;76465.97;;;-142.75;100.00
41632;BME280;37452;51.938;4.624;2023-08-08T04:55:37;76454.16;;;-142.75;100.00
41632;BME280;37452;51.938;4.624;2023-08-08T04:58:03;76469.91;;;-142.75;100.00
41632;BME280;37452;51.938;4.624;2023-08-08T05:00:28;76473.84;;;-142.75;100.00
41632;BME280;37452;51.938;4.624;2023-08-08T05:02:53;76460.06;;;-142.75;100.00
41632;BME280;37452;51.938;4.624;2023-08-08T05:05:19;76460.06;;;-142.75;100.00
41632;BME280;37452;51.938;4.624;2023-08-08T05:07:44;76464.00;;;-142.75;100.00
41632;BME280;37452;51.938;4.624;2023-08-08T05:10:09;76464.00;;;-142.75;100.00
41632;BME280;37452;51.938;4.624;2023-08-08T05:12:35;76467.94;;;-142.75;100.00
41632;BME280;37452;51.938;4.624;2023-08-08T05:15:00;76450.22;;;-142.75;100.00
41632;BME280;37452;51.938;4.624;2023-08-08T05:17:26;76452.19;;;-142.75;100.00
41632;BME280;37452;51.938;4.624;2023-08-08T05:19:51;76428.56;;;-142.75;100.00
41632;BME280;37452;51.938;4.624;2023-08-08T05:22:16;76432.50;;;-142.75;100.00
41632;BME280;37452;51.938;4.624;2023-08-08T05:24:42;76416.75;;;-142.75;100.00
41632;BME280;37452;51.938;4.624;2023-08-08T05:27:07;76436.44;;;-142.75;100.00
41632;BME280;37452;51.938;4.624;2023-08-08T05:29:32;76416.75;;;-142.75;100.00
41632;BME280;37452;51.938;4.624;2023-08-08T05:31:58;76420.69;;;-142.75;100.00
41632;BME280;37452;51.938;4.624;2023-08-08T05:34:24;76420.69;;;-142.75;100.00
41632;BME280;37452;51.938;4.624;2023-08-08T05:36:49;76424.63;;;-142.75;100.00
41632;BME280;37452;51.938;4.624;2023-08-08T05:39:14;76410.84;;;-142.75;100.00
41632;BME280;37452;51.938;4.624;2023-08-08T05:41:40;76401.00;;;-142.75;100.00
41632;BME280;37452;51.938;4.624;2023-08-08T05:44:05;76397.06;;;-142.75;100.00
41632;BME280;37452;51.938;4.624;2023-08-08T05:46:31;76389.19;;;-142.75;100.00
41632;BME280;37452;51.938;4.624;2023-08-08T05:48:56;76389.19;;;-142.75;100.00
41632;BME280;37452;51.938;4.624;2023-08-08T05:51:22;76365.56;;;-142.75;100.00
41632;BME280;37452;51.938;4.624;2023-08-08T05:53:48;76373.44;;;-142.75;100.00
41632;BME280;37452;51.938;4.624;2023-08-08T05:56:13;76377.38;;;-142.75;100.00
41632;BME280;37452;51.938;4.624;2023-08-08T05:58:39;76369.50;;;-142.75;100.00
41632;BME280;37452;51.938;4.624;2023-08-08T06:01:04;76345.91;;;-142.75;100.00
41632;BME280;37452;51.938;4.624;2023-08-08T06:03:35;76334.09;;;-142.75;100.00
41632;BME280;37452;51.938;4.624;2023-08-08T06:06:00;76322.28;;;-142.75;100.00
41632;BME280;37452;51.938;4.624;2023-08-08T06:08:26;76306.53;;;-142.75;100.00
41632;BME280;37452;51.938;4.624;2023-08-08T06:10:51;76310.47;;;-142.75;100.00
41632;BME280;37452;51.938;4.624;2023-08-08T06:13:16;76286.84;;;-142.75;100.00
41632;BME280;37452;51.938;4.624;2023-08-08T06:15:42;76288.81;;;-142.75;100.00
41632;BME280;37452;51.938;4.624;2023-08-08T06:18:08;76282.91;;;-142.75;100.00
41632;BME280;37452;51.938;4.624;2023-08-08T06:20:33;76282.91;;;-142.75;100.00
41632;BME280;37452;51.938;4.624;2023-08-08T06:22:58;76259.28;;;-142.75;100.00
41632;BME280;37452;51.938;4.624;2023-08-08T06:25:23;76269.13;;;-142.75;100.00
41632;BME280;37452;51.938;4.624;2023-08-08T06:27:50;76255.34;;;-142.75;100.00
41632;BME280;37452;51.938;4.624;2023-08-08T06:30:16;76251.41;;;-142.75;100.00
41632;BME280;37452;51.938;4.624;2023-08-08T06:32:41;76233.69;;;-142.75;100.00
41632;BME280;37452;51.938;4.624;2023-08-08T06:35:07;76215.97;;;-142.75;100.00
41632;BME280;37452;51.938;4.624;2023-08-08T06:37:32;76160.88;;;-142.75;100.00
41632;BME280;37452;51.938;4.624;2023-08-08T06:39:58;76174.66;;;-142.75;100.00
41632;BME280;37452;51.938;4.624;2023-08-08T06:42:23;76188.44;;;-142.75;100.00
41632;BME280;37452;51.938;4.624;2023-08-08T06:44:48;76174.66;;;-142.75;100.00
41632;BME280;37452;51.938;4.624;2023-08-08T06:47:14;76172.69;;;-142.75;100.00
41632;BME280;37452;51.938;4.624;2023-08-08T06:49:39;76153.00;;;-142.75;100.00
41632;BME280;37452;51.938;4.624;2023-08-08T06:52:05;76174.66;;;-142.75;100.00
41632;BME280;37452;51.938;4.624;2023-08-08T06:54:31;76182.53;;;-142.75;100.00
41632;BME280;37452;51.938;4.624;2023-08-08T06:56:56;76194.34;;;-142.75;100.00
41632;BME280;37452;51.938;4.624;2023-08-08T06:59:22;76210.06;;;-142.75;100.00
41632;BME280;37452;51.938;4.624;2023-08-08T07:01:48;76221.88;;;-142.75;100.00
41632;BME280;37452;51.938;4.624;2023-08-08T07:04:14;76210.06;;;-142.75;100.00
41632;BME280;37452;51.938;4.624;2023-08-08T07:06:39;76194.34;;;-142.75;100.00
41632;BME280;37452;51.938;4.624;2023-08-08T07:09:04;76208.09;;;-142.75;100.00
41632;BME280;37452;51.938;4.624;2023-08-08T07:11:31;76200.25;;;-142.75;100.00
41632;BME280;37452;51.938;4.624;2023-08-08T07:13:56;76184.50;;;-142.75;100.00
41632;BME280;37452;51.938;4.624;2023-08-08T07:16:21;76192.38;;;-142.75;100.00
41632;BME280;37452;51.938;4.624;2023-08-08T07:18:47;76166.78;;;-142.75;100.00
41632;BME280;37452;51.938;4.624;2023-08-08T07:21:12;76164.81;;;-142.75;100.00
41632;BME280;37452;51.938;4.624;2023-08-08T07:23:38;76149.06;;;-142.75;100.00
41632;BME280;37452;51.938;4.624;2023-08-08T07:26:03;76107.72;;;-142.75;100.00
41632;BME280;37452;51.938;4.624;2023-08-08T07:28:28;76097.88;;;-142.75;100.00
41632;BME280;37452;51.938;4.624;2023-08-08T07:30:54;76082.13;;;-142.75;100.00
41632;BME280;37452;51.938;4.624;2023-08-08T07:33:19;76082.13;;;-142.75;100.00
41632;BME280;37452;51.938;4.624;2023-08-08T07:35:44;76038.84;;;-142.75;100.00
41632;BME280;37452;51.938;4.624;2023-08-08T07:38:10;75989.63;;;-142.75;100.00
41632;BME280;37452;51.938;4.624;2023-08-08T07:40:36;75969.94;;;-142.75;100.00
41632;BME280;37452;51.938;4.624;2023-08-08T07:43:01;75944.38;;;-142.75;99.52
41632;BME280;37452;51.938;4.624;2023-08-08T07:45:26;75918.78;;;-142.75;96.62
41632;BME280;37452;51.938;4.624;2023-08-08T07:47:52;75920.75;;;-142.75;96.86
41632;BME280;37452;51.938;4.624;2023-08-08T07:50:17;75967.97;;;-142.75;90.23
41632;BME280;37452;51.938;4.624;2023-08-08T07:52:43;75967.97;;;-142.75;93.22
41632;BME280;37452;51.938;4.624;2023-08-08T07:55:08;75952.25;;;-142.75;91.25
41632;BME280;37452;51.938;4.624;2023-08-08T07:57:34;75936.50;;;-142.75;91.47
41632;BME280;37452;51.938;4.624;2023-08-08T08:00:00;75940.44;;;-142.75;91.61
41632;BME280;37452;51.938;4.624;2023-08-08T08:02:32;75956.19;;;-142.75;90.71
41632;BME280;37452;51.938;4.624;2023-08-08T08:04:57;75964.03;;;-142.75;90.81
41632;BME280;37452;51.938;4.624;2023-08-08T08:07:23;75964.03;;;-142.75;91.97
41632;BME280;37452;51.938;4.624;2023-08-08T08:09:48;75966.00;;;-142.75;92.86
41632;BME280;37452;51.938;4.624;2023-08-08T08:12:14;75987.66;;;-142.75;91.49
41632;BME280;37452;51.938;4.624;2023-08-08T08:14:40;75962.09;;;-142.75;92.47
41632;BME280;37452;51.938;4.624;2023-08-08T08:17:05;75960.13;;;-142.75;89.12
41632;BME280;37452;51.938;4.624;2023-08-08T08:19:30;75969.94;;;-142.75;90.36
41632;BME280;37452;51.938;4.624;2023-08-08T08:21:56;75967.97;;;-142.75;92.00
41632;BME280;37452;51.938;4.624;2023-08-08T08:24:21;75983.72;;;-142.75;90.35
41632;BME280;37452;51.938;4.624;2023-08-08T08:26:48;75967.97;;;-142.75;89.69
41632;BME280;37452;51.938;4.624;2023-08-08T08:29:13;75991.59;;;-142.75;88.45
41632;BME280;37452;51.938;4.624;2023-08-08T08:31:39;75956.19;;;-142.75;90.29
41632;BME280;37452;51.938;4.624;2023-08-08T08:34:04;75946.34;;;-142.75;89.80
41632;BME280;37452;51.938;4.624;2023-08-08T08:36:30;75952.25;;;-142.75;88.30
41632;BME280;37452;51.938;4.624;2023-08-08T08:38:55;75940.44;;;-142.75;89.61
41632;BME280;37452;51.938;4.624;2023-08-08T08:41:25;75922.72;;;-142.75;89.00
41632;BME280;37452;51.938;4.624;2023-08-08T08:43:51;75956.19;;;-142.75;87.85
41632;BME280;37452;51.938;4.624;2023-08-08T08:46:20;75916.81;;;-142.75;87.64
41632;BME280;37452;51.938;4.624;2023-08-08T08:48:47;75895.16;;;-142.75;87.72
41632;BME280;37452;51.938;4.624;2023-08-08T08:51:14;75903.03;;;-142.75;87.57
41632;BME280;37452;51.938;4.624;2023-08-08T08:53:40;75849.91;;;-142.75;89.80
41632;BME280;37452;51.938;4.624;2023-08-08T08:56:14;75849.91;;;-142.75;84.50
41632;BME280;37452;51.938;4.624;2023-08-08T08:58:40;75838.09;;;-142.75;82.49
41632;BME280;37452;51.938;4.624;2023-08-08T09:01:11;75810.53;;;-142.75;82.18
41632;BME280;37452;51.938;4.624;2023-08-08T09:03:36;75826.28;;;-142.75;81.45
41632;BME280;37452;51.938;4.624;2023-08-08T09:06:03;75920.75;;;-142.75;83.03
41632;BME280;37452;51.938;4.624;2023-08-08T09:08:29;75928.63;;;-142.75;83.65
41632;BME280;37452;51.938;4.624;2023-08-08T09:10:55;75962.09;;;-142.75;84.31
41632;BME280;37452;51.938;4.624;2023-08-08T09:13:21;75932.56;;;-142.75;87.04
41632;BME280;37452;51.938;4.624;2023-08-08T09:15:48;75948.31;;;-142.75;85.96
41632;BME280;37452;51.938;4.624;2023-08-08T09:18:16;75956.19;;;-142.75;85.77
41632;BME280;37452;51.938;4.624;2023-08-08T09:20:49;75960.13;;;-142.75;86.71
41632;BME280;37452;51.938;4.624;2023-08-08T09:23:15;75977.81;;;-142.75;87.70
41632;BME280;37452;51.938;4.624;2023-08-08T09:25:41;75940.44;;;-142.75;88.21
41632;BME280;37452;51.938;4.624;2023-08-08T09:28:06;75875.47;;;-142.75;90.35
41632;BME280;37452;51.938;4.624;2023-08-08T09:30:32;75847.94;;;-142.75;87.23
41632;BME280;37452;51.938;4.624;2023-08-08T09:33:01;75883.34;;;-142.75;85.72
41632;BME280;37452;51.938;4.624;2023-08-08T09:35:28;75891.22;;;-142.75;83.39
41632;BME280;37452;51.938;4.624;2023-08-08T09:37:54;75912.88;;;-142.75;83.94
41632;BME280;37452;51.938;4.624;2023-08-08T09:40:20;75918.78;;;-142.75;85.17
41632;BME280;37452;51.938;4.624;2023-08-08T09:42:46;75897.13;;;-142.75;86.20
41632;BME280;37452;51.938;4.624;2023-08-08T09:45:12;75901.06;;;-142.75;84.75
41632;BME280;37452;51.938;4.624;2023-08-08T09:47:38;75859.72;;;-142.75;85.11
41632;BME280;37452;51.938;4.624;2023-08-08T09:50:04;75845.97;;;-142.75;83.61
41632;BME280;37452;51.938;4.624;2023-08-08T09:52:35;75877.44;;;-142.75;82.22
41632;BME280;37452;51.938;4.624;2023-08-08T09:55:04;75885.31;;;-142.75;83.52
41632;BME280;37452;51.938;4.624;2023-08-08T09:57:30;75897.13;;;-142.75;86.39
41632;BME280;37452;51.938;4.624;2023-08-08T09:59:57;75883.34;;;-142.75;88.48
41632;BME280;37452;51.938;4.624;2023-08-08T10:02:22;75861.69;;;-142.75;88.57
41632;BME280;37452;51.938;4.624;2023-08-08T10:04:48;75877.44;;;-142.75;86.38
41632;BME280;37452;51.938;4.624;2023-08-08T10:07:14;75840.06;;;-142.75;86.38
41632;BME280;37452;51.938;4.624;2023-08-08T10:09:40;75798.72;;;-142.75;85.46
41632;BME280;37452;51.938;4.624;2023-08-08T10:12:07;75769.19;;;-142.75;85.02
41632;BME280;37452;51.938;4.624;2023-08-08T10:14:35;75729.84;;;-142.75;86.96
41632;BME280;37452;51.938;4.624;2023-08-08T10:17:05;75712.13;;;-142.75;83.24
41632;BME280;37452;51.938;4.624;2023-08-08T10:19:32;75690.47;;;-142.75;83.04
41632;BME280;37452;51.938;4.624;2023-08-08T10:22:04;75688.50;;;-142.75;83.07
41632;BME280;37452;51.938;4.624;2023-08-08T10:24:36;75721.97;;;-142.75;82.22
41632;BME280;37452;51.938;4.624;2023-08-08T10:27:02;75792.81;;;-142.75;80.99
41632;BME280;37452;51.938;4.624;2023-08-08T10:29:32;75792.81;;;-142.75;81.39
41632;BME280;37452;51.938;4.624;2023-08-08T10:31:59;75849.91;;;-142.75;80.79
41632;BME280;37452;51.938;4.624;2023-08-08T10:34:37;75853.84;;;-142.75;82.92
41632;BME280;37452;51.938;4.624;2023-08-08T10:37:10;75855.81;;;-142.75;84.54
41632;BME280;37452;51.938;4.624;2023-08-08T10:39:36;75885.31;;;-142.75;83.78
41632;BME280;37452;51.938;4.624;2023-08-08T10:42:04;75877.44;;;-142.75;84.93
41632;BME280;37452;51.938;4.624;2023-08-08T10:44:30;75893.19;;;-142.75;83.74
41632;BME280;37452;51.938;4.624;2023-08-08T10:46:55;75916.81;;;-142.75;82.99
41632;BME280;37452;51.938;4.624;2023-08-08T10:49:21;75899.09;;;-142.75;82.30
41632;BME280;37452;51.938;4.624;2023-08-08T10:51:48;75885.31;;;-142.75;81.56
41632;BME280;37452;51.938;4.624;2023-08-08T10:54:24;75849.91;;;-142.75;83.67
41632;BME280;37452;51.938;4.624;2023-08-08T10:56:57;75834.16;;;-142.75;85.59
41632;BME280;37452;51.938;4.624;2023-08-08T10:59:38;75786.91;;;-142.75;84.50
41632;BME280;37452;51.938;4.624;2023-08-08T11:02:04;75765.25;;;-142.75;85.93
41632;BME280;37452;51.938;4.624;2023-08-08T11:04:30;75751.50;;;-142.75;83.25
41632;BME280;37452;51.938;4.624;2023-08-08T11:06:57;75767.22;;;-142.75;84.71
41632;BME280;37452;51.938;4.624;2023-08-08T11:09:23;75777.06;;;-142.75;81.77
41632;BME280;37452;51.938;4.624;2023-08-08T11:11:49;75786.91;;;-142.75;82.59
41632;BME280;37452;51.938;4.624;2023-08-08T11:14:17;75802.66;;;-142.75;83.08
41632;BME280;37452;51.938;4.624;2023-08-08T11:16:44;75753.47;;;-142.75;84.84
41632;BME280;37452;51.938;4.624;2023-08-08T11:19:11;75802.66;;;-142.75;82.93
41632;BME280;37452;51.938;4.624;2023-08-08T11:21:42;75804.63;;;-142.75;81.93
41632;BME280;37452;51.938;4.624;2023-08-08T11:24:08;75806.59;;;-142.75;82.96
41632;BME280;37452;51.938;4.624;2023-08-08T11:26:34;75851.88;;;-142.75;84.01
41632;BME280;37452;51.938;4.624;2023-08-08T11:29:00;75873.50;;;-142.75;83.90
41632;BME280;37452;51.938;4.624;2023-08-08T11:31:27;75828.25;;;-142.75;86.02
41632;BME280;37452;51.938;4.624;2023-08-08T11:33:54;75782.97;;;-142.75;86.69
41632;BME280;37452;51.938;4.624;2023-08-08T11:36:20;75804.63;;;-142.75;86.26
41632;BME280;37452;51.938;4.624;2023-08-08T11:38:46;75777.06;;;-142.75;85.90
41632;BME280;37452;51.938;4.624;2023-08-08T11:41:13;75721.97;;;-142.75;86.25
41632;BME280;37452;51.938;4.624;2023-08-08T11:43:39;75718.03;;;-142.75;83.72
41632;BME280;37452;51.938;4.624;2023-08-08T11:46:12;75733.78;;;-142.75;83.71
41632;BME280;37452;51.938;4.624;2023-08-08T11:48:38;75743.63;;;-142.75;82.63
41632;BME280;37452;51.938;4.624;2023-08-08T11:51:04;75759.38;;;-142.75;83.33
41632;BME280;37452;51.938;4.624;2023-08-08T11:53:30;75818.41;;;-142.75;83.08
41632;BME280;37452;51.938;4.624;2023-08-08T11:55:57;75842.03;;;-142.75;83.96
41632;BME280;37452;51.938;4.624;2023-08-08T11:58:24;75853.84;;;-142.75;84.43
41632;BME280;37452;51.938;4.624;2023-08-08T12:00:50;75905.00;;;-142.75;85.02
41632;BME280;37452;51.938;4.624;2023-08-08T12:03:18;75895.16;;;-142.75;85.03
41632;BME280;37452;51.938;4.624;2023-08-08T12:05:47;75895.16;;;-142.75;85.97
41632;BME280;37452;51.938;4.624;2023-08-08T12:08:12;75891.22;;;-142.75;85.71
41632;BME280;37452;51.938;4.624;2023-08-08T12:10:39;75891.22;;;-142.75;86.65
41632;BME280;37452;51.938;4.624;2023-08-08T12:13:04;75912.88;;;-142.75;86.77
41632;BME280;37452;51.938;4.624;2023-08-08T12:15:33;75916.81;;;-142.75;88.82
41632;BME280;37452;51.938;4.624;2023-08-08T12:18:01;75987.66;;;-142.75;89.70
41632;BME280;37452;51.938;4.624;2023-08-08T12:20:28;75967.97;;;-142.75;89.63
41632;BME280;37452;51.938;4.624;2023-08-08T12:22:57;75962.09;;;-142.75;91.16
41632;BME280;37452;51.938;4.624;2023-08-08T12:25:23;75971.91;;;-142.75;92.30
41632;BME280;37452;51.938;4.624;2023-08-08T12:27:49;75924.69;;;-142.75;92.29
41632;BME280;37452;51.938;4.624;2023-08-08T12:30:14;75899.09;;;-142.75;87.73